CheckWX is a tool to help pilots better visualize weather data.  It is not intended as a substitute for an official pre-flight weather briefing.

00:41:46 UTC

ENBN METAR
Brønnøysund Airport
Brønnøy, Norway
Current

22 mins ago

ENBN 130020Z AUTO 15017KT 120V180 9999NDV NCD 05/M01 Q0983
Observed
Dec-13 @ 00:20 UTC
Wind
  • 150° at 17 KTS
Visibility
Cloud Levels
  • Clear skies
Temperature
C / 41°F
Dewpoint
-1°C / 30°F
Humidity
66%
Altimeter
29.03" Hg
Pressure
982.92 hPa
Previous

52 mins ago

ENBN 122350Z AUTO 15017G27KT 9999NDV NCD 05/M02 Q0983
Observed
Dec-12 @ 23:50 UTC
Wind
  • 150° at 17 KTS
  • Gusting to 27 KTS
Visibility
Cloud Levels
  • Clear skies
Temperature
C / 41°F
Dewpoint
-2°C / 28°F
Humidity
61%
Altimeter
29.03" Hg
Pressure
982.92 hPa
Previous

1 hour ago

ENBN 122320Z AUTO 15021KT 9999NDV NCD 05/M02 Q0983
Observed
Dec-12 @ 23:20 UTC
Wind
  • 150° at 21 KTS
Visibility
Cloud Levels
  • Clear skies
Temperature
C / 41°F
Dewpoint
-2°C / 28°F
Humidity
61%
Altimeter
29.03" Hg
Pressure
982.92 hPa